createdAt,value
2023-05-02T00:00:45.683Z,8.54
2023-05-02T00:03:17.598Z,8.56
2023-05-02T00:05:45.829Z,8.57
2023-05-02T00:08:13.650Z,8.60
2023-05-02T00:10:41.369Z,8.62
2023-05-02T00:13:09.207Z,8.63
2023-05-02T00:15:37.068Z,8.63
2023-05-02T00:18:04.957Z,8.65
2023-05-02T00:20:33.223Z,8.68
2023-05-02T00:23:01.065Z,8.68
2023-05-02T00:25:29.262Z,8.68
2023-05-02T00:27:57.109Z,8.71
2023-05-02T00:30:24.990Z,8.71
2023-05-02T00:32:54.474Z,8.70
2023-05-02T00:35:22.359Z,8.71
2023-05-02T00:37:50.332Z,8.71
2023-05-02T00:40:18.402Z,8.71
2023-05-02T00:42:46.167Z,8.71
2023-05-02T00:45:14.261Z,8.73
2023-05-02T00:47:42.258Z,8.74
2023-05-02T00:50:10.911Z,8.73
2023-05-02T00:52:38.748Z,8.73
2023-05-02T00:55:07.113Z,8.74
2023-05-02T00:57:34.998Z,8.75
2023-05-02T01:00:04.912Z,8.75
2023-05-02T01:02:43.724Z,8.75
2023-05-02T01:05:18.117Z,8.73
2023-05-02T01:07:46.005Z,8.73
2023-05-02T01:10:48.387Z,8.74
2023-05-02T01:13:26.494Z,8.75
2023-05-02T01:15:58.513Z,8.76
2023-05-02T01:18:30.725Z,8.76
2023-05-02T01:21:03.302Z,8.77
2023-05-02T01:24:02.913Z,8.75
2023-05-02T01:26:55.159Z,8.73
2023-05-02T01:29:24.146Z,8.73
2023-05-02T01:31:52.646Z,8.74
2023-05-02T01:34:22.442Z,8.74
2023-05-02T01:36:52.143Z,8.72
2023-05-02T01:39:23.084Z,8.72
2023-05-02T01:41:53.649Z,8.72
2023-05-02T01:44:23.731Z,8.70
2023-05-02T01:46:55.142Z,8.68
2023-05-02T01:49:25.608Z,8.66
2023-05-02T01:51:53.917Z,8.62
2023-05-02T01:54:24.819Z,8.60
2023-05-02T01:56:53.145Z,8.57
2023-05-02T01:59:23.935Z,8.54
2023-05-02T02:01:52.752Z,8.50
2023-05-02T02:04:22.413Z,8.49
2023-05-02T02:07:02.710Z,8.47
2023-05-02T02:09:31.773Z,8.46
2023-05-02T02:12:03.945Z,8.44
2023-05-02T02:14:35.492Z,8.43
2023-05-02T02:17:10.349Z,8.40
2023-05-02T02:19:40.884Z,8.43
2023-05-02T02:22:09.851Z,8.42
2023-05-02T02:24:40.428Z,8.42
2023-05-02T02:27:08.143Z,8.43
2023-05-02T02:29:36.106Z,8.45
2023-05-02T02:32:04.005Z,8.49
2023-05-02T02:34:32.048Z,8.53
2023-05-02T02:37:11.686Z,8.56
2023-05-02T02:39:55.946Z,8.59
2023-05-02T02:43:03.422Z,8.62
2023-05-02T02:45:50.064Z,8.64
2023-05-02T02:48:43.596Z,8.68
2023-05-02T02:51:16.215Z,8.69
2023-05-02T02:54:01.241Z,8.70
2023-05-02T02:56:39.555Z,8.71
2023-05-02T02:59:23.389Z,8.72
2023-05-02T03:02:00.317Z,8.73
2023-05-02T03:04:32.225Z,8.72
2023-05-02T03:07:00.949Z,8.74
2023-05-02T03:09:33.798Z,8.74
2023-05-02T03:12:01.663Z,8.75
2023-05-02T03:14:29.523Z,8.74
2023-05-02T03:16:57.906Z,8.76
2023-05-02T03:19:25.766Z,8.76
2023-05-02T03:21:53.939Z,8.76
2023-05-02T03:24:22.142Z,8.77
2023-05-02T03:26:50.421Z,8.79
2023-05-02T03:29:18.291Z,8.80
2023-05-02T03:31:46.125Z,8.82
2023-05-02T03:34:14.037Z,8.82
2023-05-02T03:36:41.898Z,8.82
2023-05-02T03:39:09.745Z,8.83
2023-05-02T03:41:37.464Z,8.83
2023-05-02T03:44:05.784Z,8.84
2023-05-02T03:46:33.728Z,8.85
2023-05-02T03:49:01.630Z,8.87
2023-05-02T03:51:29.388Z,8.89
2023-05-02T03:53:57.449Z,8.91
2023-05-02T03:56:25.259Z,8.93
2023-05-02T03:58:53.286Z,8.96
2023-05-02T04:01:21.076Z,8.98
2023-05-02T04:03:48.905Z,9.02
2023-05-02T04:06:16.915Z,9.05
2023-05-02T04:08:44.700Z,9.08
2023-05-02T04:11:12.620Z,9.11
2023-05-02T04:13:40.480Z,9.15
2023-05-02T04:16:09.496Z,9.19
2023-05-02T04:18:37.296Z,9.21
2023-05-02T04:21:09.650Z,9.23
2023-05-02T04:23:37.568Z,9.27
2023-05-02T04:26:06.061Z,9.33
2023-05-02T04:28:35.766Z,9.38
2023-05-02T04:31:04.403Z,9.44
2023-05-02T04:33:32.412Z,9.49
2023-05-02T04:36:00.790Z,9.53
2023-05-02T04:38:28.768Z,9.59
2023-05-02T04:40:56.625Z,9.65
2023-05-02T04:43:24.863Z,9.70
2023-05-02T04:45:53.092Z,9.75
2023-05-02T04:48:21.765Z,9.78
2023-05-02T04:50:49.931Z,9.81
2023-05-02T04:53:17.689Z,9.86
2023-05-02T04:55:45.564Z,9.93
2023-05-02T04:58:13.322Z,9.99
2023-05-02T05:00:41.285Z,10.08
2023-05-02T05:03:09.246Z,10.20
2023-05-02T05:05:37.365Z,10.33
2023-05-02T05:08:05.191Z,10.49
2023-05-02T05:10:33.168Z,10.63
2023-05-02T05:13:00.924Z,10.78
2023-05-02T05:15:28.734Z,10.94
2023-05-02T05:17:56.496Z,11.11
2023-05-02T05:20:24.522Z,11.26
2023-05-02T05:22:52.374Z,11.41
2023-05-02T05:25:20.266Z,11.57
2023-05-02T05:27:48.133Z,11.73
2023-05-02T05:30:16.001Z,11.91
2023-05-02T05:32:44.071Z,12.09
2023-05-02T05:35:12.154Z,12.25
2023-05-02T05:37:40.108Z,12.39
2023-05-02T05:40:09.135Z,12.52
2023-05-02T05:42:36.904Z,12.67
2023-05-02T05:45:04.969Z,12.83
2023-05-02T05:47:32.907Z,13.02
2023-05-02T05:50:01.618Z,13.21
2023-05-02T05:52:30.038Z,13.38
2023-05-02T05:54:57.829Z,13.58
2023-05-02T05:57:25.938Z,13.77
2023-05-02T05:59:53.723Z,13.94
2023-05-02T06:02:21.702Z,14.07
2023-05-02T06:04:49.533Z,14.18
2023-05-02T06:07:17.294Z,14.26
2023-05-02T06:09:45.073Z,14.38
2023-05-02T06:12:12.793Z,14.54
2023-05-02T06:14:41.207Z,14.71
2023-05-02T06:17:08.992Z,14.87
2023-05-02T06:19:36.792Z,14.99
2023-05-02T06:22:04.761Z,15.09
2023-05-02T06:24:32.637Z,15.14
2023-05-02T06:27:00.491Z,15.21
2023-05-02T06:29:28.361Z,15.31
2023-05-02T06:31:57.290Z,15.40
2023-05-02T06:34:25.726Z,15.50
2023-05-02T06:36:56.933Z,15.60
2023-05-02T06:39:24.832Z,15.70
2023-05-02T06:42:00.386Z,15.83
2023-05-02T06:44:28.184Z,15.90
2023-05-02T06:46:56.344Z,15.95
2023-05-02T06:49:24.347Z,16.05
2023-05-02T06:51:52.474Z,16.15
2023-05-02T06:54:21.953Z,16.20
2023-05-02T06:56:50.029Z,16.29
2023-05-02T06:59:17.891Z,16.48
2023-05-02T07:01:45.757Z,16.69
2023-05-02T07:04:13.735Z,16.83
2023-05-02T07:06:41.740Z,16.91
2023-05-02T07:09:09.765Z,17.01
2023-05-02T07:11:37.630Z,17.07
2023-05-02T07:14:05.613Z,17.11
2023-05-02T07:16:33.449Z,17.13
2023-05-02T07:19:01.839Z,17.13
2023-05-02T07:21:29.834Z,17.17
2023-05-02T07:23:57.877Z,17.18
2023-05-02T07:26:27.838Z,17.19
2023-05-02T07:28:55.868Z,17.23
2023-05-02T07:31:23.774Z,17.25
2023-05-02T07:33:51.669Z,17.28
2023-05-02T07:36:19.459Z,17.32
2023-05-02T07:38:47.235Z,17.32
2023-05-02T07:41:15.092Z,17.32
2023-05-02T07:43:43.094Z,17.35
2023-05-02T07:46:11.200Z,17.40
2023-05-02T07:48:39.464Z,17.43
2023-05-02T07:51:09.423Z,17.45
2023-05-02T07:53:37.392Z,17.46
2023-05-02T07:56:07.062Z,17.50
2023-05-02T07:58:37.397Z,17.59
2023-05-02T08:01:05.513Z,17.72
2023-05-02T08:03:33.659Z,17.78
2023-05-02T08:06:02.448Z,17.85
2023-05-02T08:08:30.532Z,17.94
2023-05-02T08:10:58.348Z,18.00
2023-05-02T08:13:27.284Z,18.02
2023-05-02T08:15:58.617Z,18.12
2023-05-02T08:18:27.313Z,18.20
2023-05-02T08:21:00.735Z,18.26
2023-05-02T08:23:28.674Z,18.37
2023-05-02T08:25:56.588Z,18.44
2023-05-02T08:28:24.369Z,18.52
2023-05-02T08:30:52.081Z,18.63
2023-05-02T08:33:20.104Z,18.70
2023-05-02T08:35:48.582Z,18.78
2023-05-02T08:38:16.298Z,18.87
2023-05-02T08:40:44.189Z,18.92
2023-05-02T08:43:13.056Z,18.95
2023-05-02T08:45:43.412Z,19.00
2023-05-02T08:48:13.764Z,19.13
2023-05-02T08:50:45.744Z,19.20
2023-05-02T08:53:14.562Z,19.26
2023-05-02T08:55:43.195Z,19.39
2023-05-02T08:58:13.852Z,19.51
2023-05-02T09:00:43.296Z,19.56
2023-05-02T09:03:31.912Z,19.61
2023-05-02T09:06:15.100Z,19.75
2023-05-02T09:08:44.973Z,19.90
2023-05-02T09:11:13.674Z,19.96
2023-05-02T09:13:46.818Z,19.91
2023-05-02T09:16:18.242Z,19.76
2023-05-02T09:18:47.729Z,19.65
2023-05-02T09:21:21.506Z,19.64
2023-05-02T09:23:54.809Z,19.66
2023-05-02T09:26:28.857Z,19.66
2023-05-02T09:28:58.572Z,19.56
2023-05-02T09:31:49.915Z,19.47
2023-05-02T09:34:18.646Z,19.44
2023-05-02T09:36:48.256Z,19.45
2023-05-02T09:39:19.031Z,19.53
2023-05-02T09:41:48.000Z,19.62
2023-05-02T09:44:21.227Z,19.66
2023-05-02T09:46:53.014Z,19.87
2023-05-02T09:49:39.076Z,20.10
2023-05-02T09:52:11.885Z,20.30
2023-05-02T09:54:39.628Z,20.33
2023-05-02T09:57:07.729Z,20.27
2023-05-02T09:59:35.577Z,20.26
2023-05-02T10:02:04.983Z,20.34
2023-05-02T10:04:34.191Z,20.27
2023-05-02T10:07:03.424Z,20.21
2023-05-02T10:09:33.092Z,20.06
2023-05-02T10:12:08.472Z,19.84
2023-05-02T10:14:45.862Z,19.59
2023-05-02T10:17:21.652Z,19.40
2023-05-02T10:20:10.170Z,19.31
2023-05-02T10:22:38.853Z,19.21
2023-05-02T10:25:06.992Z,19.01
2023-05-02T10:27:34.865Z,18.79
2023-05-02T10:30:04.890Z,18.62
2023-05-02T10:32:38.165Z,18.46
2023-05-02T10:35:08.125Z,18.13
2023-05-02T10:37:38.941Z,17.94
2023-05-02T10:40:10.507Z,17.69
2023-05-02T10:42:42.252Z,17.35
2023-05-02T10:45:31.000Z,17.25
2023-05-02T10:48:18.231Z,17.12
2023-05-02T10:50:56.909Z,16.94
2023-05-02T10:53:39.757Z,16.76
2023-05-02T10:56:21.945Z,16.62
2023-05-02T10:58:52.180Z,16.45
2023-05-02T11:01:26.600Z,16.33
2023-05-02T11:04:07.980Z,16.27
2023-05-02T11:06:37.869Z,16.16
2023-05-02T11:09:18.913Z,16.20
2023-05-02T11:11:48.571Z,16.33
2023-05-02T11:14:32.532Z,16.53
2023-05-02T11:17:09.418Z,16.69
2023-05-02T11:19:46.479Z,16.80
2023-05-02T11:22:20.842Z,16.96
2023-05-02T11:24:49.532Z,17.11
2023-05-02T11:27:29.673Z,17.29
2023-05-02T11:29:57.803Z,17.43
2023-05-02T11:32:46.943Z,17.36
2023-05-02T11:35:18.722Z,17.19
2023-05-02T11:38:03.565Z,17.14
2023-05-02T11:40:32.525Z,17.12
2023-05-02T11:43:01.524Z,17.20
2023-05-02T11:45:37.142Z,17.24
2023-05-02T11:48:07.126Z,17.32
2023-05-02T11:50:50.515Z,17.39
2023-05-02T11:53:22.676Z,17.58
2023-05-02T11:55:54.736Z,17.76
2023-05-02T11:58:25.684Z,17.87
2023-05-02T12:00:53.874Z,18.03
2023-05-02T12:03:32.774Z,18.15
2023-05-02T12:06:16.038Z,18.26
2023-05-02T12:08:44.927Z,18.33
2023-05-02T12:11:17.324Z,18.41
2023-05-02T12:13:50.075Z,18.45
2023-05-02T12:16:19.347Z,18.37
2023-05-02T12:18:48.463Z,18.33
2023-05-02T12:21:17.437Z,18.25
2023-05-02T12:23:45.689Z,18.21
2023-05-02T12:26:22.730Z,18.18
2023-05-02T12:28:57.361Z,18.14
2023-05-02T12:31:26.850Z,18.05
2023-05-02T12:33:57.812Z,17.98
2023-05-02T12:36:28.757Z,17.96
2023-05-02T12:39:02.860Z,17.88
2023-05-02T12:41:35.938Z,17.84
2023-05-02T12:44:05.187Z,17.77
2023-05-02T12:46:33.179Z,17.76
2023-05-02T12:49:09.875Z,17.73
2023-05-02T12:51:41.314Z,17.76
2023-05-02T12:54:19.976Z,17.79
2023-05-02T12:56:49.087Z,17.76
2023-05-02T12:59:33.553Z,17.83
2023-05-02T13:02:01.313Z,17.90
2023-05-02T13:04:40.857Z,17.99
2023-05-02T13:07:08.760Z,18.14
2023-05-02T13:09:37.556Z,18.25
2023-05-02T13:12:06.170Z,18.35
2023-05-02T13:14:34.009Z,18.35
2023-05-02T13:17:01.895Z,18.36
2023-05-02T13:19:31.602Z,18.32
2023-05-02T13:21:59.644Z,18.36
2023-05-02T13:24:27.568Z,18.40
2023-05-02T13:26:55.578Z,18.37
2023-05-02T13:29:23.753Z,18.34
2023-05-02T13:31:51.613Z,18.37
2023-05-02T13:34:19.391Z,18.43
2023-05-02T13:36:47.150Z,18.45
2023-05-02T13:39:15.106Z,18.45
2023-05-02T13:41:42.987Z,18.38
2023-05-02T13:44:10.839Z,18.28
2023-05-02T13:46:39.098Z,18.19
2023-05-02T13:49:07.416Z,18.23
2023-05-02T13:51:35.676Z,18.34
2023-05-02T13:54:03.635Z,18.41
2023-05-02T13:56:31.458Z,18.46
2023-05-02T13:58:59.263Z,18.60
2023-05-02T14:01:28.452Z,18.73
2023-05-02T14:03:56.744Z,18.79
2023-05-02T14:06:24.984Z,18.85
2023-05-02T14:08:52.898Z,18.85
2023-05-02T14:11:20.760Z,18.87
2023-05-02T14:13:48.713Z,18.80
2023-05-02T14:16:16.609Z,18.75
2023-05-02T14:18:50.219Z,18.68
2023-05-02T14:21:17.977Z,18.66
2023-05-02T14:23:45.907Z,18.62
2023-05-02T14:26:14.589Z,18.57
2023-05-02T14:28:42.350Z,18.47
2023-05-02T14:31:10.260Z,18.46
2023-05-02T14:33:38.188Z,18.49
2023-05-02T14:36:06.037Z,18.48
2023-05-02T14:38:34.000Z,18.49
2023-05-02T14:41:03.323Z,18.49
2023-05-02T14:43:31.504Z,18.46
2023-05-02T14:45:59.296Z,18.44
2023-05-02T14:48:27.334Z,18.44
2023-05-02T14:50:55.182Z,18.41
2023-05-02T14:53:22.955Z,18.40
2023-05-02T14:55:50.922Z,18.40
2023-05-02T14:58:20.852Z,18.36
2023-05-02T15:00:49.085Z,18.34
2023-05-02T15:03:17.189Z,18.34
2023-05-02T15:05:45.518Z,18.32
2023-05-02T15:08:13.435Z,18.22
2023-05-02T15:10:41.401Z,18.19
2023-05-02T15:13:09.283Z,18.23
2023-05-02T15:15:37.698Z,18.20
2023-05-02T15:18:06.043Z,18.18
2023-05-02T15:20:33.992Z,18.21
2023-05-02T15:23:03.735Z,18.15
2023-05-02T15:25:31.850Z,18.09
2023-05-02T15:28:00.095Z,18.12
2023-05-02T15:30:27.902Z,18.13
2023-05-02T15:32:58.176Z,18.10
2023-05-02T15:35:25.988Z,18.08
2023-05-02T15:37:53.818Z,18.13
2023-05-02T15:40:26.543Z,18.19
2023-05-02T15:42:55.294Z,18.26
2023-05-02T15:45:24.010Z,18.34
2023-05-02T15:47:54.685Z,18.37
2023-05-02T15:50:22.666Z,18.42
2023-05-02T15:52:51.158Z,18.45
2023-05-02T15:55:19.594Z,18.44
2023-05-02T15:57:52.048Z,18.45
2023-05-02T16:00:20.243Z,18.47
2023-05-02T16:02:48.530Z,18.53
2023-05-02T16:05:16.556Z,18.56
2023-05-02T16:07:44.320Z,18.54
2023-05-02T16:10:12.381Z,18.53
2023-05-02T16:12:40.160Z,18.60
2023-05-02T16:15:08.828Z,18.57
2023-05-02T16:17:36.623Z,18.50
2023-05-02T16:20:05.961Z,18.33
2023-05-02T16:22:33.992Z,18.26
2023-05-02T16:25:01.762Z,18.17
2023-05-02T16:27:29.591Z,18.12
2023-05-02T16:30:01.833Z,18.01
2023-05-02T16:32:30.064Z,17.93
2023-05-02T16:35:00.048Z,17.88
2023-05-02T16:37:27.924Z,17.82
2023-05-02T16:39:57.603Z,17.73
2023-05-02T16:42:25.596Z,17.70
2023-05-02T16:44:53.461Z,17.64
2023-05-02T16:47:21.642Z,17.60
2023-05-02T16:49:54.747Z,17.56
2023-05-02T16:52:23.187Z,17.52
2023-05-02T16:54:51.890Z,17.48
2023-05-02T16:57:21.147Z,17.43
2023-05-02T16:59:51.381Z,17.37
2023-05-02T17:02:22.209Z,17.33
2023-05-02T17:04:50.567Z,17.27
2023-05-02T17:07:18.320Z,17.20
2023-05-02T17:09:46.097Z,17.15
2023-05-02T17:12:15.436Z,17.12
2023-05-02T17:14:43.718Z,17.07
2023-05-02T17:17:12.464Z,17.01
2023-05-02T17:19:44.336Z,16.96
2023-05-02T17:22:13.009Z,16.90
2023-05-02T17:24:42.398Z,16.85
2023-05-02T17:27:11.535Z,16.81
2023-05-02T17:29:39.344Z,16.76
2023-05-02T17:32:07.141Z,16.72
2023-05-02T17:34:36.881Z,16.64
2023-05-02T17:37:04.752Z,16.59
2023-05-02T17:39:32.639Z,16.54
2023-05-02T17:42:01.407Z,16.46
2023-05-02T17:44:31.642Z,16.41
2023-05-02T17:46:59.402Z,16.36
2023-05-02T17:49:27.351Z,16.29
2023-05-02T17:51:55.427Z,16.21
2023-05-02T17:54:23.606Z,16.13
2023-05-02T17:56:52.496Z,16.06
2023-05-02T17:59:20.861Z,16.01
2023-05-02T18:01:50.611Z,15.95
2023-05-02T18:04:18.643Z,15.89
2023-05-02T18:06:46.457Z,15.82
2023-05-02T18:09:14.480Z,15.76
2023-05-02T18:11:43.057Z,15.71
2023-05-02T18:14:10.939Z,15.63
2023-05-02T18:16:39.358Z,15.63
2023-05-02T18:19:08.395Z,15.66
2023-05-02T18:21:37.693Z,15.67
2023-05-02T18:24:07.104Z,15.69
2023-05-02T18:26:34.980Z,15.70
2023-05-02T18:29:02.823Z,15.69
2023-05-02T18:31:32.227Z,15.66
2023-05-02T18:34:00.099Z,15.64
2023-05-02T18:36:29.433Z,15.64
2023-05-02T18:38:57.474Z,15.62
2023-05-02T18:41:25.325Z,15.60
2023-05-02T18:43:53.324Z,15.57
2023-05-02T18:46:21.417Z,15.53
2023-05-02T18:48:49.439Z,15.48
2023-05-02T18:51:17.502Z,15.44
2023-05-02T18:53:45.369Z,15.39
2023-05-02T18:56:16.751Z,15.35
2023-05-02T18:58:44.544Z,15.30
2023-05-02T19:01:16.949Z,15.24
2023-05-02T19:03:45.113Z,15.17
2023-05-02T19:06:19.502Z,15.15
2023-05-02T19:08:48.650Z,15.07
2023-05-02T19:11:16.505Z,15.06
2023-05-02T19:13:44.276Z,15.01
2023-05-02T19:16:13.679Z,14.96
2023-05-02T19:18:43.570Z,14.93
2023-05-02T19:21:13.146Z,14.91
2023-05-02T19:23:43.066Z,14.89
2023-05-02T19:26:12.819Z,14.85
2023-05-02T19:28:41.470Z,14.83
2023-05-02T19:31:09.978Z,14.81
2023-05-02T19:33:41.674Z,14.77
2023-05-02T19:36:10.672Z,14.76
2023-05-02T19:38:38.421Z,14.72
2023-05-02T19:41:07.967Z,14.68
2023-05-02T19:43:36.175Z,14.66
2023-05-02T19:46:03.950Z,14.64
2023-05-02T19:48:31.763Z,14.62
2023-05-02T19:51:03.680Z,14.61
2023-05-02T19:53:32.440Z,14.58
2023-05-02T19:56:02.162Z,14.53
2023-05-02T19:58:30.006Z,14.48
2023-05-02T20:00:57.883Z,14.43
2023-05-02T20:03:26.130Z,14.41
2023-05-02T20:05:55.554Z,14.37
2023-05-02T20:08:27.840Z,14.34
2023-05-02T20:10:56.332Z,14.30
2023-05-02T20:13:24.389Z,14.27
2023-05-02T20:15:53.647Z,14.25
2023-05-02T20:18:21.520Z,14.19
2023-05-02T20:20:51.273Z,14.14
2023-05-02T20:23:19.135Z,14.12
2023-05-02T20:25:47.164Z,14.10
2023-05-02T20:28:16.092Z,14.07
2023-05-02T20:30:44.369Z,14.04
2023-05-02T20:33:16.229Z,14.03
2023-05-02T20:35:45.762Z,14.00
2023-05-02T20:38:13.612Z,13.96
2023-05-02T20:40:42.904Z,13.90
2023-05-02T20:43:11.967Z,13.86
2023-05-02T20:45:40.273Z,13.81
2023-05-02T20:48:08.200Z,13.77
2023-05-02T20:50:36.414Z,13.75
2023-05-02T20:53:04.766Z,13.72
2023-05-02T20:55:32.634Z,13.65
2023-05-02T20:58:00.423Z,13.60
2023-05-02T21:00:29.086Z,13.55
2023-05-02T21:02:57.051Z,13.48
2023-05-02T21:05:24.916Z,13.41
2023-05-02T21:07:52.668Z,13.38
2023-05-02T21:10:20.448Z,13.32
2023-05-02T21:12:48.257Z,13.23
2023-05-02T21:15:16.174Z,13.12
2023-05-02T21:17:44.076Z,12.97
2023-05-02T21:20:12.745Z,12.89
2023-05-02T21:22:42.082Z,12.82
2023-05-02T21:25:10.284Z,12.76
2023-05-02T21:27:38.127Z,12.72
2023-05-02T21:30:07.465Z,12.65
2023-05-02T21:32:35.365Z,12.59
2023-05-02T21:35:03.879Z,12.52
2023-05-02T21:37:31.872Z,12.48
2023-05-02T21:39:59.926Z,12.45
2023-05-02T21:42:28.146Z,12.42
2023-05-02T21:44:55.981Z,12.39
2023-05-02T21:47:24.002Z,12.36
2023-05-02T21:49:54.185Z,12.32
2023-05-02T21:52:21.984Z,12.28
2023-05-02T21:54:52.464Z,12.25
2023-05-02T21:57:20.246Z,12.18
2023-05-02T21:59:48.325Z,12.13
2023-05-02T22:05:42.526Z,11.96
2023-05-02T22:08:12.613Z,11.86
2023-05-02T22:10:42.641Z,11.71
2023-05-02T22:13:12.696Z,11.63
2023-05-02T22:15:45.608Z,11.51
2023-05-02T22:18:15.037Z,11.41
2023-05-02T22:20:44.507Z,11.36
2023-05-02T22:23:12.709Z,11.31
2023-05-02T22:25:42.727Z,11.24
2023-05-02T22:28:12.334Z,11.18
2023-05-02T22:30:43.023Z,11.13
2023-05-02T22:33:11.184Z,11.14
2023-05-02T22:35:39.361Z,11.10
2023-05-02T22:38:10.353Z,11.07
2023-05-02T22:40:38.123Z,11.03
2023-05-02T22:43:06.002Z,11.03
2023-05-02T22:45:35.299Z,11.05
2023-05-02T22:48:03.423Z,11.02
2023-05-02T22:50:31.425Z,10.97
2023-05-02T22:52:59.903Z,10.95
2023-05-02T22:55:27.772Z,10.91
2023-05-02T22:57:55.940Z,10.83
2023-05-02T23:00:25.108Z,10.81
2023-05-02T23:02:53.084Z,10.78
2023-05-02T23:05:21.598Z,10.78
2023-05-02T23:07:49.667Z,10.78
2023-05-02T23:10:17.529Z,10.72
2023-05-02T23:12:45.594Z,10.69
2023-05-02T23:15:13.559Z,10.64
2023-05-02T23:17:41.867Z,10.59
2023-05-02T23:20:10.780Z,10.56
2023-05-02T23:22:45.782Z,10.52
2023-05-02T23:25:14.864Z,10.47
2023-05-02T23:27:42.878Z,10.43
2023-05-02T23:30:11.673Z,10.40
2023-05-02T23:32:40.282Z,10.33
2023-05-02T23:35:08.640Z,10.27
2023-05-02T23:37:36.765Z,10.21
2023-05-02T23:40:07.424Z,10.22
2023-05-02T23:42:36.163Z,10.20
2023-05-02T23:45:04.983Z,10.17
2023-05-02T23:47:33.041Z,10.15
2023-05-02T23:50:01.882Z,10.12
2023-05-02T23:52:30.095Z,10.10
2023-05-02T23:54:57.950Z,10.06
2023-05-02T23:57:25.802Z,10.03
2023-05-02T23:59:53.775Z,10.01
